Rowley, Massachusetts
Current Conditions -  °F | °C
As of 3:53 PM on Sunday 21 Dec 2014 (Local Time) from KBVY Reporting Station
Overcast Overcast  
Wind Chill: 28°   Ceiling: 1200
Heat Index: 33°   Visibility: 10mi
Dew Point: 25°   Wind: 6mph
Humidity: 72%   Direction: 360°N
Pressure: 30.31"   Gusts: NA
Location:  42.72°N, 70.88°W
Report Text: KBVY 212053Z AUTO 36005KT 10SM OVC012 01/M04 A3031 RMK AO2 SLP261 T00061039 52004
Loading
Personal Weather Stations






























Interactive Weather Map New forecast layout! Learn more

10-Day Weather Forecast

Advertisements
Track Severe Weather on mobile